Time;durP1;ratioP1;P1;durP2;ratioP2;P2;SDS_P1;SDS_P2;PMS_P1;PMS_P2;Temp;Humidity;BMP_temperature;BMP_pressure;BME280_temperature;BME280_humidity;BME280_pressure;Samples;Min_cycle;Max_cycle;Signal;HPM_P1;HPM_P2
2022/03/01 00:01:34;;;;;;;15.50;11.77;;;8.20;53.80;;;;;;5041420;28;20442;-78
2022/03/01 00:04:00;;;;;;;16.13;10.50;;;8.20;53.90;;;;;;5039547;28;20269;-76
2022/03/01 00:06:25;;;;;;;13.70;10.27;;;8.30;53.80;;;;;;5039451;28;20203;-77
2022/03/01 00:08:53;;;;;;;15.30;11.43;;;8.30;54.20;;;;;;5040144;28;20196;-77
2022/03/01 00:11:20;;;;;;;14.27;10.70;;;8.30;54.00;;;;;;5038367;28;20188;-79
2022/03/01 00:13:45;;;;;;;14.43;11.37;;;8.10;54.40;;;;;;5037890;28;20435;-77
2022/03/01 00:16:11;;;;;;;20.63;12.23;;;8.00;55.00;;;;;;5038308;28;20437;-77
2022/03/01 00:18:36;;;;;;;12.63;10.17;;;8.10;55.00;;;;;;5040041;28;20188;-78
2022/03/01 00:21:02;;;;;;;13.37;10.37;;;8.00;54.60;;;;;;5039941;28;20187;-78
2022/03/01 00:23:28;;;;;;;16.50;11.93;;;8.00;55.00;;;;;;5041448;28;20196;-77
2022/03/01 00:25:53;;;;;;;17.20;11.97;;;8.00;54.80;;;;;;5039816;28;20653;-77
2022/03/01 00:28:19;;;;;;;13.20;11.03;;;7.80;54.90;;;;;;5038319;28;20669;-77
2022/03/01 00:30:44;;;;;;;18.90;11.97;;;7.90;54.80;;;;;;5036763;28;20207;-76
2022/03/01 00:33:10;;;;;;;14.97;11.73;;;7.70;55.10;;;;;;5038910;28;20192;-77
2022/03/01 00:35:36;;;;;;;15.37;10.03;;;7.50;55.50;;;;;;5040313;28;20184;-76
2022/03/01 00:38:01;;;;;;;14.37;11.67;;;7.50;56.10;;;;;;5043908;28;20192;-76
2022/03/01 00:40:27;;;;;;;17.27;11.90;;;7.50;55.50;;;;;;5044511;28;20214;-77
2022/03/01 00:42:52;;;;;;;14.30;11.13;;;7.60;55.20;;;;;;5043161;28;20195;-78
2022/03/01 00:45:18;;;;;;;14.17;10.33;;;7.50;55.20;;;;;;5044746;28;20300;-77
2022/03/01 00:47:43;;;;;;;15.97;10.63;;;7.60;55.30;;;;;;5041305;28;20188;-77
2022/03/01 00:50:09;;;;;;;15.70;11.10;;;7.60;55.20;;;;;;5044801;28;20204;-76
2022/03/01 00:52:35;;;;;;;18.03;10.90;;;7.50;55.30;;;;;;5043109;28;20195;-76
2022/03/01 00:55:00;;;;;;;14.50;11.60;;;7.60;55.20;;;;;;5042871;28;20567;-77
2022/03/01 00:57:26;;;;;;;14.10;10.43;;;7.60;55.20;;;;;;5044124;28;20582;-78
2022/03/01 00:59:52;;;;;;;16.93;11.60;;;7.50;55.10;;;;;;5042688;28;20219;-78
2022/03/01 01:02:17;;;;;;;13.83;10.53;;;7.50;55.40;;;;;;5040994;28;20732;-78
2022/03/01 01:04:43;;;;;;;13.37;10.10;;;7.30;55.70;;;;;;5043005;28;20215;-78
2022/03/01 01:07:09;;;;;;;14.73;10.50;;;7.30;55.80;;;;;;5042787;28;20267;-78
2022/03/01 01:09:34;;;;;;;15.90;10.20;;;7.20;56.10;;;;;;5042552;28;20204;-77
2022/03/01 01:12:00;;;;;;;13.53;10.20;;;7.10;56.40;;;;;;5047001;28;20298;-78
2022/03/01 01:14:25;;;;;;;13.87;10.70;;;7.00;56.60;;;;;;5027243;28;20195;-77
2022/03/01 01:16:51;;;;;;;15.53;10.27;;;7.00;56.60;;;;;;5042226;28;20183;-78
2022/03/01 01:19:17;;;;;;;15.40;10.40;;;7.10;56.30;;;;;;5042336;28;20207;-77
2022/03/01 01:24:27;;;;;;;15.73;10.97;;;7.20;56.00;;;;;;5043949;28;21483;-80
2022/03/01 01:26:53;;;;;;;15.00;11.87;;;7.00;55.80;;;;;;5041927;28;21117;-76
2022/03/01 01:29:18;;;;;;;19.53;10.90;;;7.10;55.90;;;;;;5024491;28;20272;-75
2022/03/01 01:31:44;;;;;;;16.40;10.93;;;7.20;55.70;;;;;;5042733;28;20196;-75
2022/03/01 01:34:09;;;;;;;12.37;8.80;;;7.10;55.90;;;;;;5040648;28;20320;-75
2022/03/01 01:36:35;;;;;;;14.40;9.80;;;7.10;55.90;;;;;;5043293;28;20195;-74
2022/03/01 01:39:00;;;;;;;14.47;9.30;;;6.90;56.00;;;;;;5043292;28;20214;-75
2022/03/01 01:41:26;;;;;;;12.70;9.77;;;6.90;56.40;;;;;;5044243;28;20183;-75
2022/03/01 01:43:52;;;;;;;14.67;10.90;;;6.90;56.10;;;;;;5041859;28;20211;-75
2022/03/01 01:46:17;;;;;;;15.80;9.93;;;6.80;56.50;;;;;;5039926;28;20695;-75
2022/03/01 01:48:43;;;;;;;13.20;10.07;;;6.90;56.20;;;;;;5041177;28;20192;-75
2022/03/01 01:51:08;;;;;;;11.60;9.90;;;6.70;56.90;;;;;;5043791;28;20184;-75
2022/03/01 01:53:34;;;;;;;15.13;10.77;;;6.70;56.50;;;;;;5043456;28;20226;-75
2022/03/01 01:56:00;;;;;;;15.13;11.00;;;6.60;56.70;;;;;;5042078;28;20527;-79
2022/03/01 01:58:26;;;;;;;15.50;9.57;;;6.50;56.60;;;;;;5041190;28;20214;-78
2022/03/01 02:00:51;;;;;;;13.17;9.93;;;6.60;56.60;;;;;;5040915;28;20215;-76
2022/03/01 02:03:17;;;;;;;13.03;10.17;;;6.60;56.80;;;;;;5041608;28;20711;-76
2022/03/01 02:05:42;;;;;;;17.80;10.30;;;6.60;56.60;;;;;;5041681;28;20212;-76
2022/03/01 02:08:08;;;;;;;13.20;9.33;;;6.50;56.80;;;;;;5042502;28;20254;-76
2022/03/01 02:10:34;;;;;;;16.50;11.07;;;6.60;56.80;;;;;;5041013;28;20204;-76
2022/03/01 02:12:59;;;;;;;18.30;11.80;;;6.40;57.10;;;;;;5041397;28;20188;-76
2022/03/01 02:15:25;;;;;;;12.93;9.47;;;6.60;57.10;;;;;;5041876;28;20196;-75
2022/03/01 02:17:51;;;;;;;17.13;10.30;;;6.50;57.10;;;;;;5040914;28;20210;-76
2022/03/01 02:20:18;;;;;;;12.10;9.40;;;6.40;57.30;;;;;;5042005;28;20473;-76
2022/03/01 02:22:44;;;;;;;11.87;9.00;;;6.60;57.20;;;;;;5041306;28;20426;-76
2022/03/01 02:25:09;;;;;;;14.10;9.67;;;6.50;56.90;;;;;;5044568;28;20840;-75
2022/03/01 02:27:36;;;;;;;15.43;10.00;;;6.60;56.90;;;;;;5042157;28;20427;-73
2022/03/01 02:30:02;;;;;;;13.57;9.43;;;6.70;56.70;;;;;;5043089;28;20200;-75
2022/03/01 02:32:27;;;;;;;13.53;9.90;;;6.30;57.20;;;;;;5039157;28;20460;-77
2022/03/01 02:34:53;;;;;;;13.97;9.23;;;6.20;57.60;;;;;;5040048;28;20434;-75
2022/03/01 02:37:19;;;;;;;14.47;9.73;;;6.30;57.20;;;;;;5039982;28;20184;-74
2022/03/01 02:39:44;;;;;;;13.70;9.53;;;6.10;57.30;;;;;;5039575;28;20697;-74
2022/03/01 02:42:10;;;;;;;17.17;9.60;;;6.10;57.50;;;;;;5023928;28;20241;-74
2022/03/01 02:44:36;;;;;;;15.90;10.60;;;6.00;57.30;;;;;;5042725;28;20866;-74
2022/03/01 02:47:01;;;;;;;12.93;8.90;;;6.20;57.00;;;;;;5037789;28;20775;-75
2022/03/01 02:49:27;;;;;;;16.07;9.80;;;6.30;57.00;;;;;;5043703;28;20206;-76
2022/03/01 02:51:52;;;;;;;14.30;8.90;;;6.30;56.70;;;;;;5051126;28;20199;-77
2022/03/01 02:54:18;;;;;;;16.43;10.20;;;6.20;56.90;;;;;;5043032;28;20270;-77
2022/03/01 02:56:43;;;;;;;13.20;9.70;;;6.20;56.80;;;;;;5029926;28;20196;-77
2022/03/01 02:59:09;;;;;;;12.53;9.67;;;6.10;56.80;;;;;;5024418;28;20686;-77
2022/03/01 03:01:35;;;;;;;14.17;9.43;;;6.10;56.90;;;;;;5043530;28;20620;-77
2022/03/01 03:04:00;;;;;;;14.40;9.37;;;6.20;56.70;;;;;;5040404;28;20290;-77
2022/03/01 03:06:26;;;;;;;16.10;10.27;;;6.10;57.00;;;;;;5040121;28;20824;-76
2022/03/01 03:08:52;;;;;;;14.00;10.63;;;6.20;56.90;;;;;;5041769;28;20208;-75
2022/03/01 03:11:18;;;;;;;13.13;8.73;;;6.00;57.00;;;;;;5040905;28;20430;-77
2022/03/01 03:13:43;;;;;;;17.50;9.90;;;5.60;57.40;;;;;;5014941;28;20493;-77
2022/03/01 03:16:10;;;;;;;14.20;8.77;;;5.60;57.70;;;;;;5038131;28;20187;-78
2022/03/01 03:18:36;;;;;;;14.00;9.23;;;5.70;57.60;;;;;;5041963;28;20176;-77
2022/03/01 03:21:02;;;;;;;15.20;9.73;;;5.70;58.00;;;;;;5040072;28;20441;-77
2022/03/01 03:23:27;;;;;;;13.40;8.20;;;5.70;57.30;;;;;;5040483;28;21081;-78
2022/03/01 03:25:54;;;;;;;11.77;8.30;;;5.60;57.50;;;;;;5041737;28;20180;-77
2022/03/01 03:28:20;;;;;;;16.30;9.60;;;5.60;57.40;;;;;;5021997;28;20188;-77
2022/03/01 03:30:45;;;;;;;14.33;10.23;;;5.60;57.30;;;;;;5040682;28;20998;-78
2022/03/01 03:33:11;;;;;;;14.50;8.90;;;5.60;57.40;;;;;;5038392;28;20183;-78
2022/03/01 03:35:37;;;;;;;13.53;9.30;;;5.50;57.30;;;;;;5039101;28;20249;-76
2022/03/01 03:38:03;;;;;;;15.83;9.47;;;5.50;57.50;;;;;;5040287;28;20597;-76
2022/03/01 03:40:29;;;;;;;14.30;10.27;;;5.40;57.90;;;;;;5037108;28;20734;-76
2022/03/01 03:42:55;;;;;;;13.00;8.60;;;5.40;57.80;;;;;;5040294;28;20441;-76
2022/03/01 03:45:21;;;;;;;14.50;9.47;;;5.30;57.90;;;;;;5039625;28;20437;-76
2022/03/01 03:47:47;;;;;;;14.87;9.23;;;5.30;58.30;;;;;;5038371;28;21094;-77
2022/03/01 03:50:12;;;;;;;17.50;9.47;;;5.30;58.20;;;;;;5040633;28;20454;-76
2022/03/01 03:52:39;;;;;;;16.70;10.27;;;5.30;58.30;;;;;;5038521;28;20197;-77
2022/03/01 03:55:06;;;;;;;18.00;10.30;;;5.30;58.30;;;;;;5038995;28;20198;-76
2022/03/01 03:57:33;;;;;;;14.30;9.07;;;5.00;58.80;;;;;;5038579;28;20453;-76
2022/03/01 03:59:59;;;;;;;14.83;9.80;;;5.10;59.00;;;;;;5040892;28;20456;-77
2022/03/01 04:02:25;;;;;;;16.57;10.90;;;5.10;58.70;;;;;;5039460;28;20495;-76
2022/03/01 04:04:51;;;;;;;18.63;10.33;;;5.00;58.90;;;;;;5038133;28;20465;-77
2022/03/01 04:07:17;;;;;;;13.97;9.20;;;5.00;59.00;;;;;;5036822;28;20184;-77
2022/03/01 04:09:43;;;;;;;16.30;9.63;;;5.00;59.40;;;;;;5040865;28;20884;-75
2022/03/01 04:12:08;;;;;;;14.00;9.60;;;5.10;59.00;;;;;;5039388;28;20212;-75
2022/03/01 04:14:34;;;;;;;15.60;10.13;;;5.30;59.40;;;;;;5040313;28;20195;-75
2022/03/01 04:17:01;;;;;;;18.60;10.43;;;5.30;58.70;;;;;;5037512;28;20202;-75
2022/03/01 04:19:26;;;;;;;17.03;10.03;;;5.30;58.70;;;;;;5041584;28;20500;-75
2022/03/01 04:21:52;;;;;;;16.90;10.20;;;5.20;58.70;;;;;;5039795;28;20446;-75
2022/03/01 04:24:17;;;;;;;16.50;10.57;;;5.00;59.10;;;;;;5022992;28;20279;-75
2022/03/01 04:26:43;;;;;;;24.70;9.53;;;5.00;59.50;;;;;;5039880;28;20618;-75
2022/03/01 04:29:09;;;;;;;15.27;9.40;;;4.90;59.60;;;;;;5038732;28;20227;-75
2022/03/01 04:31:35;;;;;;;18.90;10.23;;;4.80;60.10;;;;;;5039270;28;20527;-76
2022/03/01 04:34:01;;;;;;;19.63;10.93;;;4.90;59.70;;;;;;5021881;28;20204;-76
2022/03/01 04:36:27;;;;;;;15.27;10.53;;;4.90;59.60;;;;;;5038745;28;20181;-77
2022/03/01 04:38:53;;;;;;;17.40;9.87;;;4.90;59.80;;;;;;5038826;28;20520;-77
2022/03/01 04:41:18;;;;;;;19.33;11.33;;;4.90;59.80;;;;;;5037735;28;20195;-78
2022/03/01 04:43:45;;;;;;;15.60;9.90;;;4.80;59.60;;;;;;5040378;28;20207;-77
2022/03/01 04:46:10;;;;;;;14.87;9.63;;;4.80;60.00;;;;;;5037135;28;20180;-76
2022/03/01 04:48:37;;;;;;;19.57;9.33;;;4.50;60.00;;;;;;5037648;28;20431;-75
2022/03/01 04:51:04;;;;;;;15.77;9.87;;;4.60;60.80;;;;;;5039207;28;20184;-75
2022/03/01 04:53:30;;;;;;;18.10;10.27;;;4.40;60.40;;;;;;5037987;28;20522;-76
2022/03/01 04:55:56;;;;;;;18.67;11.77;;;4.60;60.70;;;;;;5037552;28;20478;-76
2022/03/01 04:58:21;;;;;;;13.93;9.80;;;4.40;61.20;;;;;;5038249;28;20469;-76
2022/03/01 05:00:47;;;;;;;16.37;10.20;;;4.40;61.20;;;;;;5039099;28;20692;-77
2022/03/01 05:03:12;;;;;;;13.67;9.20;;;4.60;61.00;;;;;;5020933;28;20294;-76
2022/03/01 05:05:38;;;;;;;18.03;10.67;;;4.60;60.50;;;;;;5038567;28;20188;-79
2022/03/01 05:08:04;;;;;;;14.67;9.53;;;4.60;60.70;;;;;;5039124;28;20525;-78
2022/03/01 05:10:29;;;;;;;18.63;9.83;;;4.60;60.80;;;;;;5036333;28;20204;-78
2022/03/01 05:12:58;;;;;;;16.20;10.90;;;4.60;60.50;;;;;;5039950;28;20248;-78
2022/03/01 05:15:26;;;;;;;19.43;11.10;;;4.50;60.80;;;;;;5039877;28;20711;-77
2022/03/01 05:17:53;;;;;;;15.27;10.30;;;4.30;62.10;;;;;;5037704;28;21130;-76
2022/03/01 05:20:19;;;;;;;15.87;11.27;;;4.50;61.60;;;;;;5023396;28;20538;-76
2022/03/01 05:22:45;;;;;;;14.70;10.13;;;4.40;61.70;;;;;;5039430;28;20425;-77
2022/03/01 05:25:18;;;;;;;16.20;9.87;;;4.30;61.60;;;;;;5043020;28;21175;-77
2022/03/01 05:27:45;;;;;;;15.80;10.30;;;4.30;62.30;;;;;;5042436;28;20461;-78
2022/03/01 05:30:13;;;;;;;18.90;9.67;;;4.30;62.30;;;;;;5035027;28;21029;-75
2022/03/01 05:32:43;;;;;;;15.97;10.47;;;4.50;62.30;;;;;;5044523;28;20449;-74
2022/03/01 05:35:11;;;;;;;20.63;11.00;;;4.40;62.20;;;;;;5039558;28;20453;-74
2022/03/01 05:37:37;;;;;;;16.53;10.07;;;4.20;62.60;;;;;;5042302;28;20462;-74
2022/03/01 05:40:05;;;;;;;16.07;10.33;;;4.20;62.80;;;;;;5041128;28;20978;-74
2022/03/01 05:42:31;;;;;;;12.60;9.63;;;4.10;63.40;;;;;;5045466;28;20480;-75
2022/03/01 05:44:56;;;;;;;17.03;10.37;;;4.30;63.20;;;;;;5042098;28;20462;-76
2022/03/01 05:47:23;;;;;;;19.17;10.90;;;4.30;62.60;;;;;;5044178;28;20938;-75
2022/03/01 05:49:48;;;;;;;15.03;9.67;;;4.30;62.40;;;;;;5042532;28;20627;-76
2022/03/01 05:52:14;;;;;;;15.97;10.30;;;4.30;62.70;;;;;;5046440;28;20427;-75
2022/03/01 05:54:40;;;;;;;14.80;9.97;;;4.30;63.40;;;;;;5044131;28;20184;-75
2022/03/01 05:57:06;;;;;;;17.77;9.43;;;4.30;62.60;;;;;;5044005;28;20516;-75
2022/03/01 05:59:31;;;;;;;16.73;10.03;;;4.40;62.60;;;;;;5040172;28;20500;-77
2022/03/01 06:01:57;;;;;;;17.83;11.20;;;4.30;62.60;;;;;;5043432;28;20803;-77
2022/03/01 06:04:22;;;;;;;18.30;10.43;;;4.20;63.00;;;;;;5043063;28;20212;-76
2022/03/01 06:06:48;;;;;;;20.60;10.53;;;4.20;63.00;;;;;;5040303;28;20175;-75
2022/03/01 06:09:14;;;;;;;18.37;10.50;;;4.10;63.30;;;;;;5040516;28;20219;-74
2022/03/01 06:11:39;;;;;;;15.20;9.73;;;4.30;63.10;;;;;;5039799;28;20168;-78
2022/03/01 06:14:05;;;;;;;16.87;11.10;;;4.30;62.90;;;;;;5040560;28;20238;-78
2022/03/01 06:16:32;;;;;;;17.93;10.07;;;4.40;62.70;;;;;;5039664;28;20183;-75
2022/03/01 06:18:57;;;;;;;17.50;11.50;;;4.50;63.20;;;;;;5041276;28;20457;-74
2022/03/01 06:21:23;;;;;;;16.13;10.60;;;4.30;62.80;;;;;;5040522;28;20438;-75
2022/03/01 06:23:49;;;;;;;16.43;9.70;;;4.30;63.20;;;;;;5041811;28;20212;-77
2022/03/01 06:26:15;;;;;;;21.03;10.40;;;4.30;63.30;;;;;;5038064;28;20751;-75
2022/03/01 06:28:41;;;;;;;16.67;11.20;;;4.30;63.20;;;;;;5037720;28;20211;-78
2022/03/01 06:31:06;;;;;;;19.47;9.80;;;4.30;63.50;;;;;;5040058;28;20189;-77
2022/03/01 06:33:32;;;;;;;20.40;11.33;;;4.30;63.20;;;;;;5043752;28;20435;-75
2022/03/01 06:35:58;;;;;;;18.70;10.77;;;4.20;64.40;;;;;;5043661;28;20186;-76
2022/03/01 06:38:23;;;;;;;19.00;10.90;;;4.20;64.40;;;;;;5042611;28;20282;-73
2022/03/01 06:40:52;;;;;;;16.53;10.10;;;4.20;64.00;;;;;;5041682;28;20212;-81
2022/03/01 06:43:18;;;;;;;19.83;10.80;;;4.30;63.80;;;;;;5044938;28;20247;-79
2022/03/01 06:45:43;;;;;;;13.60;9.70;;;4.10;63.60;;;;;;5043189;28;20432;-77
2022/03/01 06:48:09;;;;;;;18.90;9.97;;;4.10;64.10;;;;;;5044238;28;20906;-73
2022/03/01 06:50:35;;;;;;;16.47;11.07;;;4.00;64.40;;;;;;5039925;28;20204;-73
2022/03/01 06:53:00;;;;;;;18.90;10.10;;;4.00;65.10;;;;;;5044868;28;20220;-74
2022/03/01 06:55:27;;;;;;;23.10;12.23;;;4.10;64.90;;;;;;5042802;28;20514;-73
2022/03/01 06:57:53;;;;;;;19.07;12.37;;;3.90;64.90;;;;;;5045975;28;20248;-77
2022/03/01 07:00:19;;;;;;;17.93;11.20;;;3.80;65.50;;;;;;5042722;28;20864;-75
2022/03/01 07:02:45;;;;;;;17.30;9.50;;;3.90;65.90;;;;;;5043412;28;20232;-76
2022/03/01 07:05:13;;;;;;;17.47;11.50;;;4.10;65.30;;;;;;5039666;28;20517;-76
2022/03/01 07:07:39;;;;;;;16.60;10.80;;;4.10;65.30;;;;;;5037939;28;20188;-77
2022/03/01 07:10:07;;;;;;;15.47;11.07;;;4.20;65.90;;;;;;5039396;28;20605;-77
2022/03/01 07:12:33;;;;;;;16.80;10.97;;;4.30;64.20;;;;;;5041162;28;20465;-80
2022/03/01 07:14:59;;;;;;;18.20;11.87;;;4.40;64.30;;;;;;5036969;28;20870;-79
2022/03/01 07:17:25;;;;;;;16.73;9.50;;;4.30;64.30;;;;;;5039280;28;20605;-80
2022/03/01 07:19:50;;;;;;;15.40;10.40;;;4.00;63.90;;;;;;5037976;28;20493;-80
2022/03/01 07:22:18;;;;;;;18.60;10.23;;;4.20;64.80;;;;;;5038139;28;20223;-79
2022/03/01 07:24:43;;;;;;;16.53;10.93;;;4.10;64.40;;;;;;5034129;28;20219;-79
2022/03/01 07:27:09;;;;;;;19.27;12.10;;;4.20;65.20;;;;;;5036700;28;20916;-75
2022/03/01 07:29:36;;;;;;;18.17;9.57;;;4.20;65.00;;;;;;5040671;28;20686;-79
2022/03/01 07:32:04;;;;;;;14.27;10.00;;;4.30;64.50;;;;;;5040357;28;20205;-80
2022/03/01 07:34:30;;;;;;;17.23;11.67;;;4.40;64.40;;;;;;5040218;28;20865;-85
2022/03/01 07:36:56;;;;;;;20.07;11.37;;;4.40;65.00;;;;;;5038061;28;20474;-77
2022/03/01 07:39:22;;;;;;;17.27;10.90;;;4.10;65.50;;;;;;5023938;28;20215;-76
2022/03/01 07:41:48;;;;;;;16.60;10.80;;;4.10;65.90;;;;;;5041012;28;20190;-75
2022/03/01 07:44:13;;;;;;;18.20;10.60;;;4.20;65.70;;;;;;5038742;28;20205;-75
2022/03/01 07:46:39;;;;;;;20.37;10.70;;;4.40;64.40;;;;;;5038685;28;20441;-74
2022/03/01 07:49:05;;;;;;;15.80;10.47;;;4.40;65.00;;;;;;5039836;28;20204;-76
2022/03/01 07:51:31;;;;;;;19.53;12.13;;;4.40;65.20;;;;;;5039567;28;20192;-76
2022/03/01 07:53:57;;;;;;;16.43;10.50;;;4.30;65.50;;;;;;5042685;28;20433;-83
2022/03/01 07:56:22;;;;;;;17.70;11.10;;;4.30;66.30;;;;;;5043331;28;20271;-81
2022/03/01 07:58:48;;;;;;;16.00;11.00;;;4.40;65.70;;;;;;5042535;28;20187;-77
2022/03/01 08:01:15;;;;;;;14.70;9.90;;;4.50;65.60;;;;;;5039924;28;20196;-82
2022/03/01 08:03:41;;;;;;;19.40;12.00;;;4.60;65.10;;;;;;5034935;28;20481;-70
2022/03/01 08:06:07;;;;;;;15.63;10.57;;;4.70;64.80;;;;;;5038716;28;20549;-67
2022/03/01 08:08:34;;;;;;;17.00;10.83;;;4.80;63.80;;;;;;5034098;28;21134;-71
2022/03/01 08:11:00;;;;;;;19.23;11.40;;;4.80;63.80;;;;;;5040100;28;20457;-68
2022/03/01 08:13:26;;;;;;;19.37;12.27;;;4.90;63.30;;;;;;5040192;28;20450;-69
2022/03/01 08:15:52;;;;;;;15.57;9.97;;;5.00;62.80;;;;;;5036966;28;20195;-70
2022/03/01 08:18:18;;;;;;;17.67;10.60;;;5.00;62.60;;;;;;5021985;28;20834;-70
2022/03/01 08:20:43;;;;;;;16.80;10.10;;;5.00;62.60;;;;;;5039447;28;20211;-72
2022/03/01 08:23:09;;;;;;;16.70;10.30;;;5.00;62.90;;;;;;5040359;28;20192;-70
2022/03/01 08:25:35;;;;;;;15.33;9.93;;;5.10;62.30;;;;;;5037209;28;20261;-72
2022/03/01 08:28:01;;;;;;;16.00;9.97;;;5.10;62.30;;;;;;5039409;28;20184;-69
2022/03/01 08:30:28;;;;;;;18.53;10.50;;;5.20;62.30;;;;;;5042165;28;20554;-72
2022/03/01 08:32:54;;;;;;;15.80;10.60;;;5.10;61.70;;;;;;5041310;28;20183;-70
2022/03/01 08:35:20;;;;;;;16.03;10.60;;;5.10;61.80;;;;;;5040645;28;20442;-71
2022/03/01 08:37:46;;;;;;;15.90;9.97;;;5.20;62.20;;;;;;5038952;28;20939;-71
2022/03/01 08:40:13;;;;;;;13.23;10.30;;;5.40;61.70;;;;;;5039654;28;20837;-71
2022/03/01 08:42:39;;;;;;;20.50;11.27;;;5.40;60.90;;;;;;5040286;28;20441;-73
2022/03/01 08:45:06;;;;;;;14.67;9.93;;;5.40;60.70;;;;;;5040585;28;20492;-73
2022/03/01 08:47:31;;;;;;;19.53;10.87;;;5.50;60.50;;;;;;5039694;28;20192;-76
2022/03/01 08:49:57;;;;;;;16.27;11.07;;;5.50;60.20;;;;;;5040380;28;20457;-76
2022/03/01 08:52:23;;;;;;;16.47;10.30;;;5.50;60.40;;;;;;5037590;28;20188;-76
2022/03/01 08:54:49;;;;;;;16.57;10.60;;;5.60;60.40;;;;;;5038146;28;20191;-73
2022/03/01 08:57:15;;;;;;;19.50;11.00;;;5.60;60.20;;;;;;5041313;28;20446;-74
2022/03/01 08:59:41;;;;;;;18.00;10.27;;;5.60;59.80;;;;;;5041039;28;20473;-77
2022/03/01 09:02:06;;;;;;;16.57;10.13;;;5.60;59.90;;;;;;5042178;28;20200;-75
2022/03/01 09:04:32;;;;;;;16.83;11.90;;;5.60;60.40;;;;;;5041166;28;21408;-75
2022/03/01 09:06:57;;;;;;;18.23;10.97;;;5.60;60.50;;;;;;5040218;28;20188;-77
2022/03/01 09:09:23;;;;;;;18.80;10.90;;;5.70;59.60;;;;;;5040344;28;20218;-75
2022/03/01 09:11:49;;;;;;;14.43;9.87;;;5.80;59.60;;;;;;5020447;28;20194;-74
2022/03/01 09:14:14;;;;;;;16.70;10.10;;;5.70;59.10;;;;;;5043957;28;20194;-74
2022/03/01 09:16:40;;;;;;;15.43;10.50;;;5.80;59.00;;;;;;5039891;28;20681;-74
2022/03/01 09:19:08;;;;;;;16.83;10.57;;;5.80;59.30;;;;;;5043535;28;20645;-77
2022/03/01 09:21:34;;;;;;;16.10;9.90;;;5.90;59.30;;;;;;5042620;28;20438;-73
2022/03/01 09:24:00;;;;;;;15.13;10.23;;;5.90;59.40;;;;;;5043510;28;20847;-76
2022/03/01 09:26:25;;;;;;;16.23;9.67;;;5.80;59.20;;;;;;5042280;28;20445;-74
2022/03/01 09:28:51;;;;;;;14.67;10.67;;;5.90;59.20;;;;;;5044687;28;20287;-76
2022/03/01 09:31:17;;;;;;;13.37;10.77;;;6.10;59.00;;;;;;5044281;28;20192;-74
2022/03/01 09:33:43;;;;;;;15.60;10.13;;;6.10;58.90;;;;;;5043494;28;20189;-74
2022/03/01 09:36:17;;;;;;;16.93;10.40;;;6.20;58.90;;;;;;5042658;28;20714;-74
2022/03/01 09:38:44;;;;;;;15.93;10.60;;;6.30;57.90;;;;;;5042786;28;20536;-75
2022/03/01 09:41:12;;;;;;;15.60;9.90;;;6.30;57.90;;;;;;5042059;28;20454;-72
2022/03/01 09:43:38;;;;;;;16.83;10.80;;;6.40;57.60;;;;;;5042520;28;20556;-72
2022/03/01 09:46:06;;;;;;;15.50;10.27;;;6.40;57.40;;;;;;5042898;28;21091;-72
2022/03/01 09:48:31;;;;;;;17.67;10.90;;;6.50;57.40;;;;;;5043293;28;20442;-76
2022/03/01 09:50:59;;;;;;;12.63;9.43;;;6.50;57.40;;;;;;5044289;28;20437;-77
2022/03/01 09:53:26;;;;;;;12.33;9.07;;;6.60;56.90;;;;;;5042718;28;20265;-74
2022/03/01 09:55:52;;;;;;;15.53;10.30;;;6.70;57.00;;;;;;5042998;28;20439;-75
2022/03/01 09:58:18;;;;;;;15.10;9.90;;;6.70;57.00;;;;;;5045959;28;21255;-79
2022/03/01 10:00:45;;;;;;;20.10;10.60;;;6.80;56.90;;;;;;5048017;28;20466;-81
2022/03/01 10:03:15;;;;;;;15.50;9.47;;;6.90;56.80;;;;;;5045844;28;20201;-79
2022/03/01 10:05:42;;;;;;;13.50;10.50;;;7.10;56.70;;;;;;5043113;28;21164;-77
2022/03/01 10:08:22;;;;;;;14.90;10.40;;;7.10;56.20;;;;;;5020929;28;20453;-78
2022/03/01 10:10:53;;;;;;;13.23;10.00;;;7.30;56.40;;;;;;5041761;28;20457;-78
2022/03/01 10:13:26;;;;;;;16.37;11.20;;;7.40;55.90;;;;;;5040758;28;20447;-78
2022/03/01 10:16:02;;;;;;;13.80;10.03;;;7.40;55.20;;;;;;5042147;28;20427;-79
2022/03/01 10:18:32;;;;;;;17.87;10.47;;;7.50;54.80;;;;;;5042990;28;20830;-78
2022/03/01 10:21:11;;;;;;;15.13;9.33;;;7.50;54.80;;;;;;5040180;28;20442;-77
2022/03/01 10:23:50;;;;;;;16.03;10.63;;;7.70;55.40;;;;;;5042757;28;20475;-76
2022/03/01 10:26:21;;;;;;;12.73;9.57;;;7.80;54.40;;;;;;5041793;28;20419;-75
2022/03/01 10:28:47;;;;;;;15.53;9.50;;;7.80;54.80;;;;;;5039130;28;20991;-73
2022/03/01 10:31:15;;;;;;;15.30;9.30;;;7.90;54.70;;;;;;5025685;28;20660;-74
2022/03/01 10:34:06;;;;;;;14.67;10.03;;;8.00;53.90;;;;;;5040870;28;20437;-73
2022/03/01 10:36:47;;;;;;;14.97;9.83;;;8.00;53.70;;;;;;5041485;28;20485;-75
2022/03/01 10:39:33;;;;;;;14.57;9.07;;;8.20;53.70;;;;;;5040328;28;20974;-73
2022/03/01 10:41:58;;;;;;;17.60;10.47;;;8.30;53.80;;;;;;5040520;28;20841;-78
2022/03/01 10:44:26;;;;;;;13.10;10.13;;;8.40;53.40;;;;;;5020353;28;20473;-75
2022/03/01 10:46:55;;;;;;;13.93;10.43;;;8.40;53.50;;;;;;5040842;28;20198;-74
2022/03/01 10:49:24;;;;;;;14.23;9.57;;;8.60;53.70;;;;;;5044122;28;20540;-75
2022/03/01 10:51:55;;;;;;;13.30;9.53;;;8.60;52.50;;;;;;5028768;28;20453;-76
2022/03/01 10:54:42;;;;;;;13.30;10.33;;;8.70;52.50;;;;;;5038761;28;20474;-75
2022/03/01 10:57:21;;;;;;;14.17;9.80;;;8.60;52.30;;;;;;5028943;28;20429;-75
2022/03/01 10:59:48;;;;;;;14.67;9.23;;;8.70;52.30;;;;;;5044142;28;20458;-75
2022/03/01 11:02:16;;;;;;;16.40;10.03;;;8.70;52.40;;;;;;5045149;28;20434;-77
2022/03/01 11:04:42;;;;;;;17.87;10.37;;;8.70;52.60;;;;;;5042234;28;20505;-78
2022/03/01 11:07:11;;;;;;;13.93;9.93;;;8.70;52.60;;;;;;5041437;28;20422;-79
2022/03/01 11:09:37;;;;;;;11.67;9.23;;;8.70;51.80;;;;;;5040214;28;20504;-81
2022/03/01 11:12:06;;;;;;;13.87;9.73;;;8.70;51.20;;;;;;5044144;28;20504;-80
2022/03/01 11:15:04;;;;;;;15.20;9.73;;;8.60;51.00;;;;;;5041048;28;20474;-78
2022/03/01 11:18:09;;;;;;;17.93;10.03;;;8.60;50.60;;;;;;5023017;28;20446;-76
2022/03/01 11:20:40;;;;;;;12.37;9.17;;;8.60;51.20;;;;;;4989605;28;20461;-79
2022/03/01 11:23:09;;;;;;;15.37;9.53;;;8.50;51.60;;;;;;5042436;28;20435;-81
2022/03/01 11:25:45;;;;;;;13.20;9.07;;;8.60;51.40;;;;;;5047075;28;20446;-82
2022/03/01 11:28:11;;;;;;;14.33;10.27;;;8.70;51.10;;;;;;5038773;28;20544;-78
2022/03/01 11:30:51;;;;;;;14.50;9.80;;;8.80;51.00;;;;;;5039514;28;20439;-75
2022/03/01 11:33:27;;;;;;;14.33;10.10;;;8.80;51.10;;;;;;5037972;28;20897;-75
2022/03/01 11:35:55;;;;;;;16.53;9.93;;;8.70;50.60;;;;;;5026630;28;20927;-75
2022/03/01 11:38:28;;;;;;;12.63;9.53;;;8.80;51.10;;;;;;5042740;28;20519;-80
2022/03/01 11:41:08;;;;;;;13.20;9.80;;;8.90;50.50;;;;;;5039772;28;20450;-76
2022/03/01 11:43:37;;;;;;;13.30;9.70;;;9.10;50.20;;;;;;5041243;28;20461;-76
2022/03/01 11:46:17;;;;;;;17.13;10.60;;;9.10;49.90;;;;;;5041508;28;20824;-76
2022/03/01 11:48:51;;;;;;;14.70;10.27;;;9.30;49.40;;;;;;5038831;28;20434;-77
2022/03/01 11:51:18;;;;;;;15.73;9.30;;;9.40;49.30;;;;;;5038181;28;20421;-75
2022/03/01 11:53:49;;;;;;;17.43;10.47;;;9.40;48.90;;;;;;5041900;28;20456;-74
2022/03/01 11:56:18;;;;;;;13.73;8.87;;;9.50;48.60;;;;;;5038708;28;20849;-75
2022/03/01 11:58:49;;;;;;;13.80;10.03;;;9.60;47.90;;;;;;5037835;28;20444;-75
2022/03/01 12:01:20;;;;;;;11.53;8.13;;;9.80;47.90;;;;;;5039813;28;20430;-74
2022/03/01 12:03:49;;;;;;;9.90;7.90;;;9.90;46.90;;;;;;5038744;28;20462;-75
2022/03/01 12:06:21;;;;;;;10.47;8.10;;;10.00;44.40;;;;;;5024794;28;20441;-75
2022/03/01 12:08:55;;;;;;;12.50;7.63;;;10.10;44.20;;;;;;5040388;28;20791;-76
2022/03/01 12:11:31;;;;;;;12.03;8.53;;;10.10;43.00;;;;;;5039049;28;20807;-73
2022/03/01 12:14:02;;;;;;;13.93;8.23;;;10.30;42.70;;;;;;5041981;28;20441;-73
2022/03/01 12:16:29;;;;;;;11.23;7.93;;;10.80;42.20;;;;;;5037504;28;20926;-74
2022/03/01 12:19:05;;;;;;;10.17;8.00;;;11.30;42.30;;;;;;5039894;28;20533;-75
2022/03/01 12:21:30;;;;;;;10.33;7.93;;;12.10;41.30;;;;;;5000622;28;20943;-77
2022/03/01 12:23:56;;;;;;;9.30;7.77;;;12.80;40.00;;;;;;5042334;28;20591;-75
2022/03/01 12:26:23;;;;;;;12.43;8.70;;;13.70;39.50;;;;;;5039443;28;20227;-73
2022/03/01 12:28:57;;;;;;;11.57;8.00;;;14.30;39.50;;;;;;5038817;28;20267;-78
2022/03/01 12:31:26;;;;;;;11.00;8.83;;;14.40;38.60;;;;;;5041592;28;20525;-78
2022/03/01 12:33:58;;;;;;;11.23;8.50;;;14.00;38.20;;;;;;5047219;28;20437;-76
2022/03/01 12:36:32;;;;;;;11.53;9.00;;;13.60;38.80;;;;;;5028608;28;20442;-77
2022/03/01 12:39:00;;;;;;;13.40;8.20;;;13.50;38.70;;;;;;5043714;28;20461;-77
2022/03/01 12:41:26;;;;;;;8.80;7.87;;;13.10;38.50;;;;;;5046188;28;20425;-73
2022/03/01 12:43:57;;;;;;;11.73;8.57;;;13.20;39.60;;;;;;5042679;28;22472;-73